logo
Search for airport 
image banner adimage banner adimage banner ad
image banner ad

LLHZ - Herzelia Domestic Airport

Located in Herzliya, Israel

ICAO - LLHZ, IATA -

Data provided by Airmate  

General information

Coordinates: N32°10'50" E34°50'5"
Elevation is 121 feet MSL.
Magnetic variation is 5° East
View others Airports in Tel Aviv District

Operational data

Special qualification required
Current time UTC:
Current local time:
Weather
TAF: TAF LLHZ 130502Z 1306/1406 VRB03KT 9999 SCT025 TEMPO 1306/1307 8000 BKN022 BECMG 1308/1310 29010KT FEW030 PROB30 TEMPO 1313/1315 33008KT BKN018 BECMG 1315/1317 VRB03KT SCT018 PROB40 TEMPO 1321/1405 5000 BR BKN015 TX22/1309Z TN15/1403Z
View NOTAMs / SUP AIP / TFR affecting this airport [VIEW]
Communications frequencies: [VIEW]

Runways:

RWY identifierQFULength (ft)Width (ft)SurfaceLDA (ft)
11110°296359Asphalt
29290°296359Asphalt

Airport contact information

Other aviation service providers

Flight schools

Sky Aviation

Sky Aviation

Satellite view of LLHZ